Seadawn — WBB5945 — position and weather

sailwx.info

Track history (hours):
 
Tides and Currents Weather Stations Pressure Air Temp Water Temp Dewpoint Dewpoint Depression Visibility Wind Speed Wind Dir Waves Ship Positions

Seadawn

Owner: SEADAWN FISHERIES INC, NEWPORT, OR. More information available from US FCC via Universal Licensing System and Coast Guard Vessel Documentation Center.

Last reported at 2018-Jan-11 21:14 UTC. Time now 2018-Jan-21 03:11 UTC.
Position N 49°18' W 127°03'.
Warning: this ship's position is 9 days out of date.

Length 37 m.

Type: Fishing. MMSI: 367372000.

Date/timePositionNaut miles runAvg speedWind from/ knotsBaromVisibWave heightAir tempDewpointWater temp
2018-Jan-11 21:14N 49°18' W 127°03'310.3
2018-Jan-11 20:54N 49°16' W 127°00'3410.1
2018-Jan-11 17:33N 48°55' W 126°20'110.7
2018-Jan-11 17:30N 48°54' W 126°19'611.2
2018-Jan-11 17:00N 48°52' W 126°12'510.8
2018-Jan-11 16:30N 48°50' W 126°04'510.9
2018-Jan-11 16:00N 48°47' W 125°57'611.2
2018-Jan-11 15:30N 48°44' W 125°49'611.1
2018-Jan-11 15:00N 48°42' W 125°42'510.9
2018-Jan-11 14:30N 48°39' W 125°35'610.6
2018-Jan-11 13:57N 48°37' W 125°27'1410.5
2018-Jan-11 12:36N 48°32' W 125°06'211.0
2018-Jan-11 12:27N 48°32' W 125°04'511.1
2018-Jan-11 12:00N 48°31' W 124°57'510.8
2018-Jan-11 11:30N 48°31' W 124°48'5 9.9
2018-Jan-11 11:00N 48°30' W 124°41'510.3
2018-Jan-11 10:30N 48°29' W 124°34'510.6
2018-Jan-11 10:00N 48°27' W 124°26'510.4
2018-Jan-11 09:30N 48°24' W 124°19'510.3
2018-Jan-11 09:00N 48°22' W 124°12'5 9.9
2018-Jan-11 08:29N 48°20' W 124°05'64 9.7
2018-Jan-11 01:56N 47°59' W 122°35'511.7
2018-Jan-11 01:30N 47°56' W 122°29'611.4
2018-Jan-11 01:00N 47°50' W 122°27'611.3
2018-Jan-11 00:30N 47°45' W 122°25'5 9.1
2018-Jan-11 00:00N 47°40' W 122°24'0 1.0
2018-Jan-10 23:30N 47°40' W 122°24'0 0.1
2018-Jan-10 23:00N 47°40' W 122°24'0 0.3
2018-Jan-10 22:30N 47°40' W 122°23'0 0.1
2018-Jan-10 22:00N 47°40' W 122°23'0 0.0
2018-Jan-10 21:30N 47°40' W 122°23'0 0.0
2018-Jan-10 21:00N 47°40' W 122°23'0 0.1
2018-Jan-10 20:30N 47°40' W 122°23'0 0.1
2018-Jan-10 20:00N 47°40' W 122°23'0 0.0
2018-Jan-10 19:30N 47°40' W 122°23'0 0.0
2018-Jan-10 19:00N 47°40' W 122°23'0 0.0
2018-Jan-10 18:30N 47°40' W 122°23'0 0.0
2018-Jan-10 18:00N 47°40' W 122°23'0 0.0
2018-Jan-10 17:30N 47°40' W 122°23'0 0.0
2018-Jan-10 17:00N 47°40' W 122°23'1 1.2
2018-Jan-10 16:30N 47°40' W 122°23'0 0.0
2018-Jan-10 16:00N 47°40' W 122°23'0 0.0
2018-Jan-10 15:30N 47°40' W 122°23'0 0.0
2018-Jan-10 15:00N 47°40' W 122°23'0 0.0
2018-Jan-10 14:30N 47°40' W 122°23'0 0.0
2018-Jan-10 14:00N 47°40' W 122°23'0 0.0
2018-Jan-10 13:30N 47°40' W 122°23'0 0.0
2018-Jan-10 13:00N 47°40' W 122°23'0 0.0
2018-Jan-10 12:30N 47°40' W 122°23'0 0.0
2018-Jan-10 12:00N 47°40' W 122°23'0 0.0
2018-Jan-10 11:30N 47°40' W 122°23'0 0.0
2018-Jan-10 11:00N 47°40' W 122°23'0 0.0
2018-Jan-10 10:30N 47°40' W 122°23'0 0.0
2018-Jan-10 10:00N 47°40' W 122°23'0 0.0
2018-Jan-10 09:30N 47°40' W 122°23'0 0.0
2018-Jan-10 09:00N 47°40' W 122°23'0 0.0
2018-Jan-10 08:30N 47°40' W 122°23'0 0.0
2018-Jan-10 08:00N 47°40' W 122°23'0 0.0
2018-Jan-10 07:30N 47°40' W 122°23'0 0.0
2018-Jan-10 07:00N 47°40' W 122°23'0 0.0
2018-Jan-10 06:30N 47°40' W 122°23'0 0.0
2018-Jan-10 06:00N 47°40' W 122°23'0 0.1
2018-Jan-10 05:30N 47°40' W 122°23'0 0.1
2018-Jan-10 05:00N 47°40' W 122°23'0 0.0
2018-Jan-10 04:30N 47°40' W 122°23'0 0.0
2018-Jan-10 04:00N 47°40' W 122°23'0 0.0
2018-Jan-10 03:30N 47°40' W 122°23'0 0.0
2018-Jan-10 03:00N 47°40' W 122°23'0 0.0
2018-Jan-10 02:30N 47°40' W 122°23'0 0.0
2018-Jan-10 02:00N 47°40' W 122°23'0 0.0
2018-Jan-10 01:30N 47°40' W 122°23'0 0.0
2018-Jan-10 01:00N 47°40' W 122°23'0 0.0
2018-Jan-10 00:30N 47°40' W 122°23'0 0.0
2018-Jan-10 00:00N 47°40' W 122°23'0 0.0
2018-Jan-09 23:30N 47°40' W 122°23'0 0.0
2018-Jan-09 23:00N 47°40' W 122°23'0 0.0
2018-Jan-09 22:30N 47°40' W 122°23'0 0.0
2018-Jan-09 22:00N 47°40' W 122°23'0 0.0
2018-Jan-09 21:30N 47°40' W 122°23'0 0.0
2018-Jan-09 21:00N 47°40' W 122°23'0 0.0
2018-Jan-09 20:30N 47°40' W 122°23'0 0.0
2018-Jan-09 20:00N 47°40' W 122°23'0 0.0
2018-Jan-09 19:30N 47°40' W 122°23'0 0.0
2018-Jan-09 19:00N 47°40' W 122°23'0 0.0
2018-Jan-09 18:30N 47°40' W 122°23'0 0.0
2018-Jan-09 18:00N 47°40' W 122°23'0 0.0
2018-Jan-09 17:30N 47°40' W 122°23'0 0.0
2018-Jan-09 17:00N 47°40' W 122°23'0 0.0
2018-Jan-09 16:30N 47°40' W 122°23'0 0.0
2018-Jan-09 16:00N 47°40' W 122°23'0 0.0
2018-Jan-09 15:30N 47°40' W 122°23'0 0.0
2018-Jan-09 15:00N 47°40' W 122°23'0 0.0
2018-Jan-09 14:30N 47°40' W 122°23'0 0.0
2018-Jan-09 14:00N 47°40' W 122°23'0 0.0
2018-Jan-09 13:30N 47°40' W 122°23'0 0.0
2018-Jan-09 13:00N 47°40' W 122°23'0 0.0
2018-Jan-09 12:30N 47°40' W 122°23'0 0.0
2018-Jan-09 12:00N 47°40' W 122°23'0 0.0
2018-Jan-09 11:30N 47°40' W 122°23'0 0.1
2018-Jan-09 11:00N 47°40' W 122°23'0 0.0
2018-Jan-09 10:30N 47°40' W 122°23'0 0.1
2018-Jan-09 10:00N 47°40' W 122°23'0 0.0
2018-Jan-09 09:30N 47°40' W 122°23'0 0.0
2018-Jan-09 09:00N 47°40' W 122°23'0 0.0
2018-Jan-09 08:30N 47°40' W 122°23'0 0.0
2018-Jan-09 08:00N 47°40' W 122°23'0 0.0
2018-Jan-09 07:30N 47°40' W 122°23'0 0.0
2018-Jan-09 07:00N 47°40' W 122°23'0 0.0
2018-Jan-09 06:30N 47°40' W 122°23'0 0.0
2018-Jan-09 06:00N 47°40' W 122°23'0 0.0
2018-Jan-09 05:30N 47°40' W 122°23'0 0.0
2018-Jan-09 05:00N 47°40' W 122°23'0 0.0
2018-Jan-09 04:30N 47°40' W 122°23'0 0.0
2018-Jan-09 04:00N 47°40' W 122°23'0 0.0
2018-Jan-09 03:30N 47°40' W 122°23'0 0.0
2018-Jan-09 03:00N 47°40' W 122°23'0 0.0
2018-Jan-09 02:30N 47°40' W 122°23'0 0.0
2018-Jan-09 02:00N 47°40' W 122°23'0 0.0
2018-Jan-09 01:30N 47°40' W 122°23'0 0.0
2018-Jan-09 01:00N 47°40' W 122°23'0 0.0
2018-Jan-09 00:30N 47°40' W 122°23'0 0.0
2018-Jan-09 00:00N 47°40' W 122°23'0 0.0
2018-Jan-08 23:30N 47°40' W 122°23'0 0.0
2018-Jan-08 23:00N 47°40' W 122°23'0 0.0
2018-Jan-08 22:30N 47°40' W 122°23'0 0.0
2018-Jan-08 22:00N 47°40' W 122°23'0 0.0
2018-Jan-08 21:30N 47°40' W 122°23'0 0.0
2018-Jan-08 21:00N 47°40' W 122°23'0 0.0
2018-Jan-08 20:30N 47°40' W 122°23'0 0.0
2018-Jan-08 20:00N 47°40' W 122°23'0 0.0
2018-Jan-08 19:30N 47°40' W 122°23'0 0.0
2018-Jan-08 19:00N 47°40' W 122°23'0 0.0
2018-Jan-08 18:30N 47°40' W 122°23'0 0.0
2018-Jan-08 18:00N 47°40' W 122°23'0 0.0
2018-Jan-08 17:30N 47°40' W 122°23'0 0.0
2018-Jan-08 17:00N 47°40' W 122°23'0 0.0
2018-Jan-08 16:30N 47°40' W 122°23'0 0.0
2018-Jan-08 16:00N 47°40' W 122°23'0 0.0
2018-Jan-08 15:30N 47°40' W 122°23'0 0.0
2018-Jan-08 15:00N 47°40' W 122°23'0 0.0
2018-Jan-08 14:30N 47°40' W 122°23'0 0.0
2018-Jan-08 14:00N 47°40' W 122°23'0 0.0
2018-Jan-08 13:30N 47°40' W 122°23'0 0.0
2018-Jan-08 13:00N 47°40' W 122°23'0 0.0
2018-Jan-08 12:30N 47°40' W 122°23'0 0.0
2018-Jan-08 12:00N 47°40' W 122°23'0 0.0
2018-Jan-08 11:30N 47°40' W 122°23'0 0.0
2018-Jan-08 11:00N 47°40' W 122°23'0 0.1
2018-Jan-08 10:30N 47°40' W 122°23'0 0.1
2018-Jan-08 10:00N 47°40' W 122°23'0 0.0
2018-Jan-08 09:30N 47°40' W 122°23'0 0.0
2018-Jan-08 09:00N 47°40' W 122°23'0 0.0
2018-Jan-08 08:30N 47°40' W 122°23'0 0.0
2018-Jan-08 08:00N 47°40' W 122°23'0 0.0
2018-Jan-08 07:30N 47°40' W 122°23'0 0.0
2018-Jan-08 07:00N 47°40' W 122°23'0 0.0
2018-Jan-08 06:30N 47°40' W 122°23'0 0.1
2018-Jan-08 06:00N 47°40' W 122°23'0 0.1
2018-Jan-08 05:30N 47°40' W 122°23'0 0.0
2018-Jan-08 05:00N 47°40' W 122°23'0 0.0
2018-Jan-08 04:30N 47°40' W 122°23'0 0.0
2018-Jan-08 04:00N 47°40' W 122°23'0 0.0
2018-Jan-08 03:30N 47°40' W 122°23'0 0.0
2018-Jan-08 03:00N 47°40' W 122°23'0 0.0
2018-Jan-08 02:30N 47°40' W 122°23'0 0.0
2018-Jan-08 02:00N 47°40' W 122°23'0 0.0
2018-Jan-08 01:30N 47°40' W 122°23'0 0.0
2018-Jan-08 01:00N 47°40' W 122°23'0 0.0
2018-Jan-08 00:30N 47°40' W 122°23'0 0.0
2018-Jan-08 00:00N 47°40' W 122°23'0 0.0
2018-Jan-07 23:30N 47°40' W 122°23'0 0.0
2018-Jan-07 23:00N 47°40' W 122°23'0 0.0
2018-Jan-07 22:30N 47°40' W 122°23'0 0.1
2018-Jan-07 22:00N 47°40' W 122°23'0 0.1
2018-Jan-07 21:30N 47°40' W 122°23'0 0.0
2018-Jan-07 21:00N 47°40' W 122°23'0 0.0
2018-Jan-07 20:30N 47°40' W 122°23'0 0.0
2018-Jan-07 20:00N 47°40' W 122°23'0 0.0
2018-Jan-07 19:30N 47°40' W 122°23'0 0.0
2018-Jan-07 19:00N 47°40' W 122°23'0 0.0
2018-Jan-07 18:30N 47°40' W 122°23'0 0.0
2018-Jan-07 18:00N 47°40' W 122°23'0 0.0
2018-Jan-07 17:30N 47°40' W 122°23'0 0.0
2018-Jan-07 17:00N 47°40' W 122°23'0 0.0
2018-Jan-07 16:30N 47°40' W 122°23'0 0.0
2018-Jan-07 16:00N 47°40' W 122°23'0 0.0
2018-Jan-07 15:30N 47°40' W 122°23'0 0.1
2018-Jan-07 15:00N 47°40' W 122°23'0 0.1
2018-Jan-07 14:30N 47°40' W 122°23'0 0.0
2018-Jan-07 14:00N 47°40' W 122°23'0 0.0
2018-Jan-07 13:30N 47°40' W 122°23'0 0.0
2018-Jan-07 13:00N 47°40' W 122°23'0 0.0
2018-Jan-07 12:30N 47°40' W 122°23'0 0.0
2018-Jan-07 12:00N 47°40' W 122°23'0 0.0
2018-Jan-07 11:30N 47°40' W 122°23'0 0.0
2018-Jan-07 11:00N 47°40' W 122°23'0 0.0
2018-Jan-07 10:30N 47°40' W 122°23'0 0.0
2018-Jan-07 10:00N 47°40' W 122°23'0 0.0
2018-Jan-07 09:30N 47°40' W 122°23'0 0.0
2018-Jan-07 09:00N 47°40' W 122°23'0 0.0
2018-Jan-07 08:30N 47°40' W 122°23'0 0.0
2018-Jan-07 08:00N 47°40' W 122°23'0 0.1
2018-Jan-07 07:30N 47°40' W 122°23'0 0.1
2018-Jan-07 07:00N 47°40' W 122°23'0 0.0
2018-Jan-07 06:30N 47°40' W 122°23'0 0.0
2018-Jan-07 06:00N 47°40' W 122°23'0 0.0
2018-Jan-07 05:30N 47°40' W 122°23'0 0.0
2018-Jan-07 05:00N 47°40' W 122°23'0 0.0
2018-Jan-07 04:30N 47°40' W 122°23'0 0.0
2018-Jan-07 04:00N 47°40' W 122°23'0 0.0
2018-Jan-07 03:30N 47°40' W 122°23'0 0.0
2018-Jan-07 03:00N 47°40' W 122°23'0 0.0
2018-Jan-07 02:30N 47°40' W 122°23'0 0.0
2018-Jan-07 02:00N 47°40' W 122°23'0 0.0
2018-Jan-07 01:30N 47°40' W 122°23'0 0.0
2018-Jan-07 00:30N 47°40' W 122°23'0 0.0
2018-Jan-07 00:00N 47°40' W 122°23'0 0.0
2018-Jan-06 23:30N 47°40' W 122°23'0 0.0
2018-Jan-06 23:00N 47°40' W 122°23'0 0.0
2018-Jan-06 22:30N 47°40' W 122°23'0 0.0
2018-Jan-06 22:00N 47°40' W 122°23'0 0.0
2018-Jan-06 21:30N 47°40' W 122°23'0 0.0
2018-Jan-06 21:00N 47°40' W 122°23'0 0.0
2018-Jan-06 20:30N 47°40' W 122°23'0 0.0
2018-Jan-06 20:00N 47°40' W 122°23'0 0.0
2018-Jan-06 19:30N 47°40' W 122°23'0 0.0
2018-Jan-06 19:00N 47°40' W 122°23'0 0.0
2018-Jan-06 18:30N 47°40' W 122°23'0 0.0
2018-Jan-06 18:00N 47°40' W 122°23'0 0.0
2018-Jan-06 17:30N 47°40' W 122°23'0 0.0
2018-Jan-06 17:00N 47°40' W 122°23'0 0.0
2018-Jan-06 16:30N 47°40' W 122°23'0 0.0
2018-Jan-06 16:00N 47°40' W 122°23'0 0.0
2018-Jan-06 15:30N 47°40' W 122°23'0 0.0
2018-Jan-06 15:00N 47°40' W 122°23'0 0.0
2018-Jan-06 14:30N 47°40' W 122°23'0 0.0
2018-Jan-06 14:00N 47°40' W 122°23'0 0.0
2018-Jan-06 13:30N 47°40' W 122°23'0 0.0
2018-Jan-06 13:00N 47°40' W 122°23'0 0.0
2018-Jan-06 12:30N 47°40' W 122°23'0 0.0
2018-Jan-06 12:00N 47°40' W 122°23'0 0.0
2018-Jan-06 11:30N 47°40' W 122°23'0 0.1
2018-Jan-06 11:00N 47°40' W 122°23'0 0.0
2018-Jan-06 10:30N 47°40' W 122°23'0 0.1
2018-Jan-06 10:00N 47°40' W 122°23'0 0.0
2018-Jan-06 09:30N 47°40' W 122°23'0 0.0
2018-Jan-06 09:00N 47°40' W 122°23'0 0.0
2018-Jan-06 08:30N 47°40' W 122°23'0 0.0
2018-Jan-06 08:00N 47°40' W 122°23'0 0.0
2018-Jan-06 07:30N 47°40' W 122°23'0 0.0
2018-Jan-06 07:00N 47°40' W 122°23'0 0.0
2018-Jan-06 06:30N 47°40' W 122°23'0 0.0
2018-Jan-06 06:00N 47°40' W 122°23'0 0.0
2018-Jan-06 05:30N 47°40' W 122°23'0 0.0
2018-Jan-06 05:00N 47°40' W 122°23'0 0.0
2018-Jan-06 04:30N 47°40' W 122°23'0 0.0
2018-Jan-06 04:00N 47°40' W 122°23'0 0.0
2018-Jan-06 03:30N 47°40' W 122°23'0 0.0
2018-Jan-06 03:00N 47°40' W 122°23'0 0.0
2018-Jan-06 02:30N 47°40' W 122°23'0 0.0
2018-Jan-06 02:00N 47°40' W 122°23'0 0.0
2018-Jan-06 01:30N 47°40' W 122°23'0 0.0
2018-Jan-06 01:00N 47°40' W 122°23'0 0.0
2018-Jan-06 00:30N 47°40' W 122°23'0 0.0
2018-Jan-06 00:00N 47°40' W 122°23'0 0.0
2018-Jan-05 23:30N 47°40' W 122°23'0 0.0
2018-Jan-05 23:00N 47°40' W 122°23'0 0.0
2018-Jan-05 22:30N 47°40' W 122°23'0 0.0
2018-Jan-05 22:00N 47°40' W 122°23'0 0.0
2018-Jan-05 21:30N 47°40' W 122°23'0 0.0
2018-Jan-05 21:00N 47°40' W 122°23'0 0.0
2018-Jan-05 20:30N 47°40' W 122°23'0 0.0
2018-Jan-05 20:00N 47°40' W 122°23'0 0.0
2018-Jan-05 19:30N 47°40' W 122°23'0 0.0
2018-Jan-05 19:00N 47°40' W 122°23'0 0.0
2018-Jan-05 18:30N 47°40' W 122°23'0 0.0
2018-Jan-05 18:00N 47°40' W 122°23'0 0.0
2018-Jan-05 17:30N 47°40' W 122°23'0 0.0
2018-Jan-05 17:00N 47°40' W 122°23'0 0.0
2018-Jan-05 16:30N 47°40' W 122°23'0 0.0
2018-Jan-05 16:00N 47°40' W 122°23'0 0.0
2018-Jan-05 15:30N 47°40' W 122°23'0 0.0
2018-Jan-05 15:00N 47°40' W 122°23'0 0.0
2018-Jan-05 14:30N 47°40' W 122°23'0 0.0
2018-Jan-05 14:00N 47°40' W 122°23'0 0.0
2018-Jan-05 13:30N 47°40' W 122°23'0 0.0
2018-Jan-05 13:00N 47°40' W 122°23'0 0.0
2018-Jan-05 12:30N 47°40' W 122°23'0 0.0
2018-Jan-05 12:00N 47°40' W 122°23'0 0.0
2018-Jan-05 11:30N 47°40' W 122°23'0 0.0
2018-Jan-05 11:00N 47°40' W 122°23'0 0.1
2018-Jan-05 10:30N 47°40' W 122°23'0 0.1
2018-Jan-05 10:00N 47°40' W 122°23'0 0.0
2018-Jan-05 09:30N 47°40' W 122°23'0 0.0
2018-Jan-05 09:00N 47°40' W 122°23'0 0.0
2018-Jan-05 08:30N 47°40' W 122°23'0 0.0
2018-Jan-05 08:00N 47°40' W 122°23'0 0.0
2018-Jan-05 07:30N 47°40' W 122°23'0 0.0
2018-Jan-05 07:00N 47°40' W 122°23'0 0.0
2018-Jan-05 06:30N 47°40' W 122°23'0 0.0
2018-Jan-05 06:00N 47°40' W 122°23'0 0.0
2018-Jan-05 05:30N 47°40' W 122°23'0 0.0
2018-Jan-05 05:00N 47°40' W 122°23'0 0.0
2018-Jan-05 04:30N 47°40' W 122°23'0 0.0
2018-Jan-05 04:00N 47°40' W 122°23'0 0.0
2018-Jan-05 03:30N 47°40' W 122°23'0 0.0
2018-Jan-05 03:00N 47°40' W 122°23'0 0.0
2018-Jan-05 02:30N 47°40' W 122°23'0 0.0
2018-Jan-05 02:00N 47°40' W 122°23'0 0.0
2018-Jan-05 01:30N 47°40' W 122°23'0 0.0
2018-Jan-05 01:00N 47°40' W 122°23'0 0.0
2018-Jan-05 00:31N 47°40' W 122°23'0 0.0
2018-Jan-05 00:01N 47°40' W 122°23'0 0.0
2018-Jan-04 23:30N 47°40' W 122°23'0 0.0
2018-Jan-04 23:01N 47°40' W 122°23'0 0.0
2018-Jan-04 22:30N 47°40' W 122°23'0 0.0
2018-Jan-04 22:01N 47°40' W 122°23'0 0.0
2018-Jan-04 21:30N 47°40' W 122°23'0 0.0
2018-Jan-04 21:00N 47°40' W 122°23'0 0.0
2018-Jan-04 20:30N 47°40' W 122°23'0 0.0
2018-Jan-04 20:00N 47°40' W 122°23'0 0.0
2018-Jan-04 19:31N 47°40' W 122°23'0 0.0
2018-Jan-04 19:01N 47°40' W 122°23'0 0.0
2018-Jan-04 18:30N 47°40' W 122°23'0 0.0
2018-Jan-04 18:00N 47°40' W 122°23'0 0.0
2018-Jan-04 17:30N 47°40' W 122°23'0 0.0
2018-Jan-04 17:00N 47°40' W 122°23'0 0.0
2018-Jan-04 16:30N 47°40' W 122°23'0 0.0
2018-Jan-04 16:00N 47°40' W 122°23'0 0.0
2018-Jan-04 15:30N 47°40' W 122°23'0 0.0
2018-Jan-04 15:00N 47°40' W 122°23'0 0.0
2018-Jan-04 14:30N 47°40' W 122°23'0 0.0
2018-Jan-04 14:00N 47°40' W 122°23'0 0.0
2018-Jan-04 13:30N 47°40' W 122°23'0 0.0
2018-Jan-04 13:00N 47°40' W 122°23'0 0.0
2018-Jan-04 12:30N 47°40' W 122°23'0 0.0
2018-Jan-04 12:00N 47°40' W 122°23'0 0.0
2018-Jan-04 11:30N 47°40' W 122°23'0 0.0
2018-Jan-04 11:00N 47°40' W 122°23'0 0.0
2018-Jan-04 10:30N 47°40' W 122°23'0 0.0
2018-Jan-04 10:00N 47°40' W 122°23'0 0.0
2018-Jan-04 09:30N 47°40' W 122°23'0 0.0
2018-Jan-04 09:00N 47°40' W 122°23'0 0.0
2018-Jan-04 08:30N 47°40' W 122°23'0 0.0
2018-Jan-04 08:00N 47°40' W 122°23'0 0.0
2018-Jan-04 07:30N 47°40' W 122°23'0 0.0
2018-Jan-04 07:00N 47°40' W 122°23'0 0.0
2018-Jan-04 06:30N 47°40' W 122°23'0 0.0
2018-Jan-04 06:00N 47°40' W 122°23'0 0.0
2018-Jan-04 05:30N 47°40' W 122°23'0 0.0
2018-Jan-04 05:00N 47°40' W 122°23'0 0.0
2018-Jan-04 04:30N 47°40' W 122°23'0 0.0
2018-Jan-04 04:00N 47°40' W 122°23'0 0.0
2018-Jan-04 03:30N 47°40' W 122°23'0 0.0
2018-Jan-04 03:00N 47°40' W 122°23'0 0.0
2018-Jan-04 02:30N 47°40' W 122°23'0 0.0
2018-Jan-04 02:00N 47°40' W 122°23'0 0.0
2018-Jan-04 01:30N 47°40' W 122°23'0 0.0
2018-Jan-04 01:00N 47°40' W 122°23'0 0.0
2018-Jan-04 00:30N 47°40' W 122°23'0 0.0
2018-Jan-04 00:00N 47°40' W 122°23'0 0.0
2018-Jan-03 23:30N 47°40' W 122°23'0 0.0
2018-Jan-03 23:00N 47°40' W 122°23'0 0.0
2018-Jan-03 22:30N 47°40' W 122°23'0 0.0
2018-Jan-03 22:00N 47°40' W 122°23'0 0.0
2018-Jan-03 21:30N 47°40' W 122°23'0 0.0
2018-Jan-03 21:00N 47°40' W 122°23'0 0.0
2018-Jan-03 20:30N 47°40' W 122°23'0 0.0
2018-Jan-03 20:00N 47°40' W 122°23'0 0.0
2018-Jan-03 19:30N 47°40' W 122°23'0 0.0
2018-Jan-03 19:00N 47°40' W 122°23'0 0.0
2018-Jan-03 18:30N 47°40' W 122°23'  
Track history (hours):
 
Tides and Currents Weather Stations Pressure Air Temp Water Temp Dewpoint Dewpoint Depression Visibility Wind Speed Wind Dir Waves Ship Positions

Seadawn

Owner: SEADAWN FISHERIES INC, NEWPORT, OR. More information available from US FCC via Universal Licensing System and Coast Guard Vessel Documentation Center.

Last reported at 2018-Jan-11 21:14 UTC. Time now 2018-Jan-21 03:11 UTC.
Position N 49°18' W 127°03'.
Warning: this ship's position is 9 days out of date.

Length 37 m.

Type: Fishing. MMSI: 367372000.

Date/timePositionNaut miles runAvg speedWind from/ knotsBaromVisibWave heightAir tempDewpointWater temp
2018-Jan-11 21:14N 49°18' W 127°03'310.3
2018-Jan-11 20:54N 49°16' W 127°00'3410.1
2018-Jan-11 17:33N 48°55' W 126°20'110.7
2018-Jan-11 17:30N 48°54' W 126°19'611.2
2018-Jan-11 17:00N 48°52' W 126°12'510.8
2018-Jan-11 16:30N 48°50' W 126°04'510.9
2018-Jan-11 16:00N 48°47' W 125°57'611.2
2018-Jan-11 15:30N 48°44' W 125°49'611.1
2018-Jan-11 15:00N 48°42' W 125°42'510.9
2018-Jan-11 14:30N 48°39' W 125°35'610.6
2018-Jan-11 13:57N 48°37' W 125°27'1410.5
2018-Jan-11 12:36N 48°32' W 125°06'211.0
2018-Jan-11 12:27N 48°32' W 125°04'511.1
2018-Jan-11 12:00N 48°31' W 124°57'510.8
2018-Jan-11 11:30N 48°31' W 124°48'5 9.9
2018-Jan-11 11:00N 48°30' W 124°41'510.3
2018-Jan-11 10:30N 48°29' W 124°34'510.6
2018-Jan-11 10:00N 48°27' W 124°26'510.4
2018-Jan-11 09:30N 48°24' W 124°19'510.3
2018-Jan-11 09:00N 48°22' W 124°12'5 9.9
2018-Jan-11 08:29N 48°20' W 124°05'64 9.7
2018-Jan-11 01:56N 47°59' W 122°35'511.7
2018-Jan-11 01:30N 47°56' W 122°29'611.4
2018-Jan-11 01:00N 47°50' W 122°27'611.3
2018-Jan-11 00:30N 47°45' W 122°25'5 9.1
2018-Jan-11 00:00N 47°40' W 122°24'0 1.0
2018-Jan-10 23:30N 47°40' W 122°24'0 0.1
2018-Jan-10 23:00N 47°40' W 122°24'0 0.3
2018-Jan-10 22:30N 47°40' W 122°23'0 0.1
2018-Jan-10 22:00N 47°40' W 122°23'0 0.0
2018-Jan-10 21:30N 47°40' W 122°23'0 0.0
2018-Jan-10 21:00N 47°40' W 122°23'0 0.1
2018-Jan-10 20:30N 47°40' W 122°23'0 0.1
2018-Jan-10 20:00N 47°40' W 122°23'0 0.0
2018-Jan-10 19:30N 47°40' W 122°23'0 0.0
2018-Jan-10 19:00N 47°40' W 122°23'0 0.0
2018-Jan-10 18:30N 47°40' W 122°23'0 0.0
2018-Jan-10 18:00N 47°40' W 122°23'0 0.0
2018-Jan-10 17:30N 47°40' W 122°23'0 0.0
2018-Jan-10 17:00N 47°40' W 122°23'1 1.2
2018-Jan-10 16:30N 47°40' W 122°23'0 0.0
2018-Jan-10 16:00N 47°40' W 122°23'0 0.0
2018-Jan-10 15:30N 47°40' W 122°23'0 0.0
2018-Jan-10 15:00N 47°40' W 122°23'0 0.0
2018-Jan-10 14:30N 47°40' W 122°23'0 0.0
2018-Jan-10 14:00N 47°40' W 122°23'0 0.0
2018-Jan-10 13:30N 47°40' W 122°23'0 0.0
2018-Jan-10 13:00N 47°40' W 122°23'0 0.0
2018-Jan-10 12:30N 47°40' W 122°23'0 0.0
2018-Jan-10 12:00N 47°40' W 122°23'0 0.0
2018-Jan-10 11:30N 47°40' W 122°23'0 0.0
2018-Jan-10 11:00N 47°40' W 122°23'0 0.0
2018-Jan-10 10:30N 47°40' W 122°23'0 0.0
2018-Jan-10 10:00N 47°40' W 122°23'0 0.0
2018-Jan-10 09:30N 47°40' W 122°23'0 0.0
2018-Jan-10 09:00N 47°40' W 122°23'0 0.0
2018-Jan-10 08:30N 47°40' W 122°23'0 0.0
2018-Jan-10 08:00N 47°40' W 122°23'0 0.0
2018-Jan-10 07:30N 47°40' W 122°23'0 0.0
2018-Jan-10 07:00N 47°40' W 122°23'0 0.0
2018-Jan-10 06:30N 47°40' W 122°23'0 0.0
2018-Jan-10 06:00N 47°40' W 122°23'0 0.1
2018-Jan-10 05:30N 47°40' W 122°23'0 0.1
2018-Jan-10 05:00N 47°40' W 122°23'0 0.0
2018-Jan-10 04:30N 47°40' W 122°23'0 0.0
2018-Jan-10 04:00N 47°40' W 122°23'0 0.0
2018-Jan-10 03:30N 47°40' W 122°23'0 0.0
2018-Jan-10 03:00N 47°40' W 122°23'0 0.0
2018-Jan-10 02:30N 47°40' W 122°23'0 0.0
2018-Jan-10 02:00N 47°40' W 122°23'0 0.0
2018-Jan-10 01:30N 47°40' W 122°23'0 0.0
2018-Jan-10 01:00N 47°40' W 122°23'0 0.0
2018-Jan-10 00:30N 47°40' W 122°23'0 0.0
2018-Jan-10 00:00N 47°40' W 122°23'0 0.0
2018-Jan-09 23:30N 47°40' W 122°23'0 0.0
2018-Jan-09 23:00N 47°40' W 122°23'0 0.0
2018-Jan-09 22:30N 47°40' W 122°23'0 0.0
2018-Jan-09 22:00N 47°40' W 122°23'0 0.0
2018-Jan-09 21:30N 47°40' W 122°23'0 0.0
2018-Jan-09 21:00N 47°40' W 122°23'0 0.0
2018-Jan-09 20:30N 47°40' W 122°23'0 0.0
2018-Jan-09 20:00N 47°40' W 122°23'0 0.0
2018-Jan-09 19:30N 47°40' W 122°23'0 0.0
2018-Jan-09 19:00N 47°40' W 122°23'0 0.0
2018-Jan-09 18:30N 47°40' W 122°23'0 0.0
2018-Jan-09 18:00N 47°40' W 122°23'0 0.0
2018-Jan-09 17:30N 47°40' W 122°23'0 0.0
2018-Jan-09 17:00N 47°40' W 122°23'0 0.0
2018-Jan-09 16:30N 47°40' W 122°23'0 0.0
2018-Jan-09 16:00N 47°40' W 122°23'0 0.0
2018-Jan-09 15:30N 47°40' W 122°23'0 0.0
2018-Jan-09 15:00N 47°40' W 122°23'0 0.0
2018-Jan-09 14:30N 47°40' W 122°23'0 0.0
2018-Jan-09 14:00N 47°40' W 122°23'0 0.0
2018-Jan-09 13:30N 47°40' W 122°23'0 0.0
2018-Jan-09 13:00N 47°40' W 122°23'0 0.0
2018-Jan-09 12:30N 47°40' W 122°23'0 0.0
2018-Jan-09 12:00N 47°40' W 122°23'0 0.0
2018-Jan-09 11:30N 47°40' W 122°23'0 0.1
2018-Jan-09 11:00N 47°40' W 122°23'0 0.0
2018-Jan-09 10:30N 47°40' W 122°23'0 0.1
2018-Jan-09 10:00N 47°40' W 122°23'0 0.0
2018-Jan-09 09:30N 47°40' W 122°23'0 0.0
2018-Jan-09 09:00N 47°40' W 122°23'0 0.0
2018-Jan-09 08:30N 47°40' W 122°23'0 0.0
2018-Jan-09 08:00N 47°40' W 122°23'0 0.0
2018-Jan-09 07:30N 47°40' W 122°23'0 0.0
2018-Jan-09 07:00N 47°40' W 122°23'0 0.0
2018-Jan-09 06:30N 47°40' W 122°23'0 0.0
2018-Jan-09 06:00N 47°40' W 122°23'0 0.0
2018-Jan-09 05:30N 47°40' W 122°23'0 0.0
2018-Jan-09 05:00N 47°40' W 122°23'0 0.0
2018-Jan-09 04:30N 47°40' W 122°23'0 0.0
2018-Jan-09 04:00N 47°40' W 122°23'0 0.0
2018-Jan-09 03:30N 47°40' W 122°23'0 0.0
2018-Jan-09 03:00N 47°40' W 122°23'0 0.0
2018-Jan-09 02:30N 47°40' W 122°23'0 0.0
2018-Jan-09 02:00N 47°40' W 122°23'0 0.0
2018-Jan-09 01:30N 47°40' W 122°23'0 0.0
2018-Jan-09 01:00N 47°40' W 122°23'0 0.0
2018-Jan-09 00:30N 47°40' W 122°23'0 0.0
2018-Jan-09 00:00N 47°40' W 122°23'0 0.0
2018-Jan-08 23:30N 47°40' W 122°23'0 0.0
2018-Jan-08 23:00N 47°40' W 122°23'0 0.0
2018-Jan-08 22:30N 47°40' W 122°23'0 0.0
2018-Jan-08 22:00N 47°40' W 122°23'0 0.0
2018-Jan-08 21:30N 47°40' W 122°23'0 0.0
2018-Jan-08 21:00N 47°40' W 122°23'0 0.0
2018-Jan-08 20:30N 47°40' W 122°23'0 0.0
2018-Jan-08 20:00N 47°40' W 122°23'0 0.0
2018-Jan-08 19:30N 47°40' W 122°23'0 0.0
2018-Jan-08 19:00N 47°40' W 122°23'0 0.0
2018-Jan-08 18:30N 47°40' W 122°23'0 0.0
2018-Jan-08 18:00N 47°40' W 122°23'0 0.0
2018-Jan-08 17:30N 47°40' W 122°23'0 0.0
2018-Jan-08 17:00N 47°40' W 122°23'0 0.0
2018-Jan-08 16:30N 47°40' W 122°23'0 0.0
2018-Jan-08 16:00N 47°40' W 122°23'0 0.0
2018-Jan-08 15:30N 47°40' W 122°23'0 0.0
2018-Jan-08 15:00N 47°40' W 122°23'0 0.0
2018-Jan-08 14:30N 47°40' W 122°23'0 0.0
2018-Jan-08 14:00N 47°40' W 122°23'0 0.0
2018-Jan-08 13:30N 47°40' W 122°23'0 0.0
2018-Jan-08 13:00N 47°40' W 122°23'0 0.0
2018-Jan-08 12:30N 47°40' W 122°23'0 0.0
2018-Jan-08 12:00N 47°40' W 122°23'0 0.0
2018-Jan-08 11:30N 47°40' W 122°23'0 0.0
2018-Jan-08 11:00N 47°40' W 122°23'0 0.1
2018-Jan-08 10:30N 47°40' W 122°23'0 0.1
2018-Jan-08 10:00N 47°40' W 122°23'0 0.0
2018-Jan-08 09:30N 47°40' W 122°23'0 0.0
2018-Jan-08 09:00N 47°40' W 122°23'0 0.0
2018-Jan-08 08:30N 47°40' W 122°23'0 0.0
2018-Jan-08 08:00N 47°40' W 122°23'0 0.0
2018-Jan-08 07:30N 47°40' W 122°23'0 0.0
2018-Jan-08 07:00N 47°40' W 122°23'0 0.0
2018-Jan-08 06:30N 47°40' W 122°23'0 0.1
2018-Jan-08 06:00N 47°40' W 122°23'0 0.1
2018-Jan-08 05:30N 47°40' W 122°23'0 0.0
2018-Jan-08 05:00N 47°40' W 122°23'0 0.0
2018-Jan-08 04:30N 47°40' W 122°23'0 0.0
2018-Jan-08 04:00N 47°40' W 122°23'0 0.0
2018-Jan-08 03:30N 47°40' W 122°23'0 0.0
2018-Jan-08 03:00N 47°40' W 122°23'0 0.0
2018-Jan-08 02:30N 47°40' W 122°23'0 0.0
2018-Jan-08 02:00N 47°40' W 122°23'0 0.0
2018-Jan-08 01:30N 47°40' W 122°23'0 0.0
2018-Jan-08 01:00N 47°40' W 122°23'0 0.0
2018-Jan-08 00:30N 47°40' W 122°23'0 0.0
2018-Jan-08 00:00N 47°40' W 122°23'0 0.0
2018-Jan-07 23:30N 47°40' W 122°23'0 0.0
2018-Jan-07 23:00N 47°40' W 122°23'0 0.0
2018-Jan-07 22:30N 47°40' W 122°23'0 0.1
2018-Jan-07 22:00N 47°40' W 122°23'0 0.1
2018-Jan-07 21:30N 47°40' W 122°23'0 0.0
2018-Jan-07 21:00N 47°40' W 122°23'0 0.0
2018-Jan-07 20:30N 47°40' W 122°23'0 0.0
2018-Jan-07 20:00N 47°40' W 122°23'0 0.0
2018-Jan-07 19:30N 47°40' W 122°23'0 0.0
2018-Jan-07 19:00N 47°40' W 122°23'0 0.0
2018-Jan-07 18:30N 47°40' W 122°23'0 0.0
2018-Jan-07 18:00N 47°40' W 122°23'0 0.0
2018-Jan-07 17:30N 47°40' W 122°23'0 0.0
2018-Jan-07 17:00N 47°40' W 122°23'0 0.0
2018-Jan-07 16:30N 47°40' W 122°23'0 0.0
2018-Jan-07 16:00N 47°40' W 122°23'0 0.0
2018-Jan-07 15:30N 47°40' W 122°23'0 0.1
2018-Jan-07 15:00N 47°40' W 122°23'0 0.1
2018-Jan-07 14:30N 47°40' W 122°23'0 0.0
2018-Jan-07 14:00N 47°40' W 122°23'0 0.0
2018-Jan-07 13:30N 47°40' W 122°23'0 0.0
2018-Jan-07 13:00N 47°40' W 122°23'0 0.0
2018-Jan-07 12:30N 47°40' W 122°23'0 0.0
2018-Jan-07 12:00N 47°40' W 122°23'0 0.0
2018-Jan-07 11:30N 47°40' W 122°23'0 0.0
2018-Jan-07 11:00N 47°40' W 122°23'0 0.0
2018-Jan-07 10:30N 47°40' W 122°23'0 0.0
2018-Jan-07 10:00N 47°40' W 122°23'0 0.0
2018-Jan-07 09:30N 47°40' W 122°23'0 0.0
2018-Jan-07 09:00N 47°40' W 122°23'0 0.0
2018-Jan-07 08:30N 47°40' W 122°23'0 0.0
2018-Jan-07 08:00N 47°40' W 122°23'0 0.1
2018-Jan-07 07:30N 47°40' W 122°23'0 0.1
2018-Jan-07 07:00N 47°40' W 122°23'0 0.0
2018-Jan-07 06:30N 47°40' W 122°23'0 0.0
2018-Jan-07 06:00N 47°40' W 122°23'0 0.0
2018-Jan-07 05:30N 47°40' W 122°23'0 0.0
2018-Jan-07 05:00N 47°40' W 122°23'0 0.0
2018-Jan-07 04:30N 47°40' W 122°23'0 0.0
2018-Jan-07 04:00N 47°40' W 122°23'0 0.0
2018-Jan-07 03:30N 47°40' W 122°23'0 0.0
2018-Jan-07 03:00N 47°40' W 122°23'0 0.0
2018-Jan-07 02:30N 47°40' W 122°23'0 0.0
2018-Jan-07 02:00N 47°40' W 122°23'0 0.0
2018-Jan-07 01:30N 47°40' W 122°23'0 0.0
2018-Jan-07 00:30N 47°40' W 122°23'0 0.0
2018-Jan-07 00:00N 47°40' W 122°23'0 0.0
2018-Jan-06 23:30N 47°40' W 122°23'0 0.0
2018-Jan-06 23:00N 47°40' W 122°23'0 0.0
2018-Jan-06 22:30N 47°40' W 122°23'0 0.0
2018-Jan-06 22:00N 47°40' W 122°23'0 0.0
2018-Jan-06 21:30N 47°40' W 122°23'0 0.0
2018-Jan-06 21:00N 47°40' W 122°23'0 0.0
2018-Jan-06 20:30N 47°40' W 122°23'0 0.0
2018-Jan-06 20:00N 47°40' W 122°23'0 0.0
2018-Jan-06 19:30N 47°40' W 122°23'0 0.0
2018-Jan-06 19:00N 47°40' W 122°23'0 0.0
2018-Jan-06 18:30N 47°40' W 122°23'0 0.0
2018-Jan-06 18:00N 47°40' W 122°23'0 0.0
2018-Jan-06 17:30N 47°40' W 122°23'0 0.0
2018-Jan-06 17:00N 47°40' W 122°23'0 0.0
2018-Jan-06 16:30N 47°40' W 122°23'0 0.0
2018-Jan-06 16:00N 47°40' W 122°23'0 0.0
2018-Jan-06 15:30N 47°40' W 122°23'0 0.0
2018-Jan-06 15:00N 47°40' W 122°23'0 0.0
2018-Jan-06 14:30N 47°40' W 122°23'0 0.0
2018-Jan-06 14:00N 47°40' W 122°23'0 0.0
2018-Jan-06 13:30N 47°40' W 122°23'0 0.0
2018-Jan-06 13:00N 47°40' W 122°23'0 0.0
2018-Jan-06 12:30N 47°40' W 122°23'0 0.0
2018-Jan-06 12:00N 47°40' W 122°23'0 0.0
2018-Jan-06 11:30N 47°40' W 122°23'0 0.1
2018-Jan-06 11:00N 47°40' W 122°23'0 0.0
2018-Jan-06 10:30N 47°40' W 122°23'0 0.1
2018-Jan-06 10:00N 47°40' W 122°23'0 0.0
2018-Jan-06 09:30N 47°40' W 122°23'0 0.0
2018-Jan-06 09:00N 47°40' W 122°23'0 0.0
2018-Jan-06 08:30N 47°40' W 122°23'0 0.0
2018-Jan-06 08:00N 47°40' W 122°23'0 0.0
2018-Jan-06 07:30N 47°40' W 122°23'0 0.0
2018-Jan-06 07:00N 47°40' W 122°23'0 0.0
2018-Jan-06 06:30N 47°40' W 122°23'0 0.0
2018-Jan-06 06:00N 47°40' W 122°23'0 0.0
2018-Jan-06 05:30N 47°40' W 122°23'0 0.0
2018-Jan-06 05:00N 47°40' W 122°23'0 0.0
2018-Jan-06 04:30N 47°40' W 122°23'0 0.0
2018-Jan-06 04:00N 47°40' W 122°23'0 0.0
2018-Jan-06 03:30N 47°40' W 122°23'0 0.0
2018-Jan-06 03:00N 47°40' W 122°23'0 0.0
2018-Jan-06 02:30N 47°40' W 122°23'0 0.0
2018-Jan-06 02:00N 47°40' W 122°23'0 0.0
2018-Jan-06 01:30N 47°40' W 122°23'0 0.0
2018-Jan-06 01:00N 47°40' W 122°23'0 0.0
2018-Jan-06 00:30N 47°40' W 122°23'0 0.0
2018-Jan-06 00:00N 47°40' W 122°23'0 0.0
2018-Jan-05 23:30N 47°40' W 122°23'0 0.0
2018-Jan-05 23:00N 47°40' W 122°23'0 0.0
2018-Jan-05 22:30N 47°40' W 122°23'0 0.0
2018-Jan-05 22:00N 47°40' W 122°23'0 0.0
2018-Jan-05 21:30N 47°40' W 122°23'0 0.0
2018-Jan-05 21:00N 47°40' W 122°23'0 0.0
2018-Jan-05 20:30N 47°40' W 122°23'0 0.0
2018-Jan-05 20:00N 47°40' W 122°23'0 0.0
2018-Jan-05 19:30N 47°40' W 122°23'0 0.0
2018-Jan-05 19:00N 47°40' W 122°23'0 0.0
2018-Jan-05 18:30N 47°40' W 122°23'0 0.0
2018-Jan-05 18:00N 47°40' W 122°23'0 0.0
2018-Jan-05 17:30N 47°40' W 122°23'0 0.0
2018-Jan-05 17:00N 47°40' W 122°23'0 0.0
2018-Jan-05 16:30N 47°40' W 122°23'0 0.0
2018-Jan-05 16:00N 47°40' W 122°23'0 0.0
2018-Jan-05 15:30N 47°40' W 122°23'0 0.0
2018-Jan-05 15:00N 47°40' W 122°23'0 0.0
2018-Jan-05 14:30N 47°40' W 122°23'0 0.0
2018-Jan-05 14:00N 47°40' W 122°23'0 0.0
2018-Jan-05 13:30N 47°40' W 122°23'0 0.0
2018-Jan-05 13:00N 47°40' W 122°23'0 0.0
2018-Jan-05 12:30N 47°40' W 122°23'0 0.0
2018-Jan-05 12:00N 47°40' W 122°23'0 0.0
2018-Jan-05 11:30N 47°40' W 122°23'0 0.0
2018-Jan-05 11:00N 47°40' W 122°23'0 0.1
2018-Jan-05 10:30N 47°40' W 122°23'0 0.1
2018-Jan-05 10:00N 47°40' W 122°23'0 0.0
2018-Jan-05 09:30N 47°40' W 122°23'0 0.0
2018-Jan-05 09:00N 47°40' W 122°23'0 0.0
2018-Jan-05 08:30N 47°40' W 122°23'0 0.0
2018-Jan-05 08:00N 47°40' W 122°23'0 0.0
2018-Jan-05 07:30N 47°40' W 122°23'0 0.0
2018-Jan-05 07:00N 47°40' W 122°23'0 0.0
2018-Jan-05 06:30N 47°40' W 122°23'0 0.0
2018-Jan-05 06:00N 47°40' W 122°23'0 0.0
2018-Jan-05 05:30N 47°40' W 122°23'0 0.0
2018-Jan-05 05:00N 47°40' W 122°23'0 0.0
2018-Jan-05 04:30N 47°40' W 122°23'0 0.0
2018-Jan-05 04:00N 47°40' W 122°23'0 0.0
2018-Jan-05 03:30N 47°40' W 122°23'0 0.0
2018-Jan-05 03:00N 47°40' W 122°23'0 0.0
2018-Jan-05 02:30N 47°40' W 122°23'0 0.0
2018-Jan-05 02:00N 47°40' W 122°23'0 0.0
2018-Jan-05 01:30N 47°40' W 122°23'0 0.0
2018-Jan-05 01:00N 47°40' W 122°23'0 0.0
2018-Jan-05 00:31N 47°40' W 122°23'0 0.0
2018-Jan-05 00:01N 47°40' W 122°23'0 0.0
2018-Jan-04 23:30N 47°40' W 122°23'0 0.0
2018-Jan-04 23:01N 47°40' W 122°23'0 0.0
2018-Jan-04 22:30N 47°40' W 122°23'0 0.0
2018-Jan-04 22:01N 47°40' W 122°23'0 0.0
2018-Jan-04 21:30N 47°40' W 122°23'0 0.0
2018-Jan-04 21:00N 47°40' W 122°23'0 0.0
2018-Jan-04 20:30N 47°40' W 122°23'0 0.0
2018-Jan-04 20:00N 47°40' W 122°23'0 0.0
2018-Jan-04 19:31N 47°40' W 122°23'0 0.0
2018-Jan-04 19:01N 47°40' W 122°23'0 0.0
2018-Jan-04 18:30N 47°40' W 122°23'0 0.0
2018-Jan-04 18:00N 47°40' W 122°23'0 0.0
2018-Jan-04 17:30N 47°40' W 122°23'0 0.0
2018-Jan-04 17:00N 47°40' W 122°23'0 0.0
2018-Jan-04 16:30N 47°40' W 122°23'0 0.0
2018-Jan-04 16:00N 47°40' W 122°23'0 0.0
2018-Jan-04 15:30N 47°40' W 122°23'0 0.0
2018-Jan-04 15:00N 47°40' W 122°23'0 0.0
2018-Jan-04 14:30N 47°40' W 122°23'0 0.0
2018-Jan-04 14:00N 47°40' W 122°23'0 0.0
2018-Jan-04 13:30N 47°40' W 122°23'0 0.0
2018-Jan-04 13:00N 47°40' W 122°23'0 0.0
2018-Jan-04 12:30N 47°40' W 122°23'0 0.0
2018-Jan-04 12:00N 47°40' W 122°23'0 0.0
2018-Jan-04 11:30N 47°40' W 122°23'0 0.0
2018-Jan-04 11:00N 47°40' W 122°23'0 0.0
2018-Jan-04 10:30N 47°40' W 122°23'0 0.0
2018-Jan-04 10:00N 47°40' W 122°23'0 0.0
2018-Jan-04 09:30N 47°40' W 122°23'0 0.0
2018-Jan-04 09:00N 47°40' W 122°23'0 0.0
2018-Jan-04 08:30N 47°40' W 122°23'0 0.0
2018-Jan-04 08:00N 47°40' W 122°23'0 0.0
2018-Jan-04 07:30N 47°40' W 122°23'0 0.0
2018-Jan-04 07:00N 47°40' W 122°23'0 0.0
2018-Jan-04 06:30N 47°40' W 122°23'0 0.0
2018-Jan-04 06:00N 47°40' W 122°23'0 0.0
2018-Jan-04 05:30N 47°40' W 122°23'0 0.0
2018-Jan-04 05:00N 47°40' W 122°23'0 0.0
2018-Jan-04 04:30N 47°40' W 122°23'0 0.0
2018-Jan-04 04:00N 47°40' W 122°23'0 0.0
2018-Jan-04 03:30N 47°40' W 122°23'0 0.0
2018-Jan-04 03:00N 47°40' W 122°23'0 0.0
2018-Jan-04 02:30N 47°40' W 122°23'0 0.0
2018-Jan-04 02:00N 47°40' W 122°23'0 0.0
2018-Jan-04 01:30N 47°40' W 122°23'0 0.0
2018-Jan-04 01:00N 47°40' W 122°23'0 0.0
2018-Jan-04 00:30N 47°40' W 122°23'0 0.0
2018-Jan-04 00:00N 47°40' W 122°23'0 0.0
2018-Jan-03 23:30N 47°40' W 122°23'0 0.0
2018-Jan-03 23:00N 47°40' W 122°23'0 0.0
2018-Jan-03 22:30N 47°40' W 122°23'0 0.0
2018-Jan-03 22:00N 47°40' W 122°23'0 0.0
2018-Jan-03 21:30N 47°40' W 122°23'0 0.0
2018-Jan-03 21:00N 47°40' W 122°23'0 0.0
2018-Jan-03 20:30N 47°40' W 122°23'0 0.0
2018-Jan-03 20:00N 47°40' W 122°23'0 0.0
2018-Jan-03 19:30N 47°40' W 122°23'0 0.0
2018-Jan-03 19:00N 47°40' W 122°23'0 0.0
2018-Jan-03 18:30N 47°40' W 122°23'  

Dump ship's entire track history